Portada
METAR-TAF:

METAR-TAF

Aeropuertos :

Aeropuerto de Orán Es Sénia

Orán, Argelia

latitud: 35-38N, longitud: 000-36W, altitud: 90 m

Observación

El informe se hizo hace 24 minutos, a las 07:00 UTC
Viento 3 kt del sureste
Temperatura 25°C
Humedad 74%
Presión 1014 hPa
Visibilidad 10 km o más
Escasas nubes a una altura de 2600 ft

METAR: DAOO 140700Z 13003KT 9999 FEW026 25/20 Q1014

Hora: 08:24 (07:24 UTC)

Pronóstico

El informe se hizo hace 2 horas y 24 minutos, a las 05:00 UTC
Pronóstico válido del 14 a las 06 UTC al 15 a las 06 UTC
Viento 2 kt con dirección variable
Visibilidad 10 km o más
Nubes dispersas a una altura de 2600 ft
Evolucionando progresivamente
del 14 a las 12 UTC al 14 a las 14 UTC
Viento 11 kt del noreste

TAF: DAOO 140500Z 1406/1506 VRB02KT 9999 SCT026 BECMG 1412/1414 04011KT

Observaciones y pronósticos meteorológicos de más de 4000 aeropuertos (mensajes METAR y TAF).

Los puntos amarillos y rojos representan las estaciones disponibles.

Ponga el ratón en el punto deseado para ver el nombre de la estación.

Haga clic para ver las observaciones y los pronósticos meteorológicos.

Para cambiar el mapa : haga clic en los botones verdes con una cruz de color negro para hacer un zoom, en el botón verde con un guión para alejar o en las flechas verdes para mapas adyacentes.


METAR-TAF: